createdAt,value
2023-08-26T00:01:38.231Z,98043.94
2023-08-26T00:04:05.164Z,98042.41
2023-08-26T00:06:31.934Z,98046.38
2023-08-26T00:08:58.666Z,98034.75
2023-08-26T00:11:25.329Z,98036.72
2023-08-26T00:13:51.995Z,98027.28
2023-08-26T00:16:18.740Z,98024.13
2023-08-26T00:18:47.256Z,98019.13
2023-08-26T00:21:15.848Z,98018.97
2023-08-26T00:23:42.444Z,98021.94
2023-08-26T00:26:12.412Z,98025.41
2023-08-26T00:28:39.150Z,98024.06
2023-08-26T00:31:05.931Z,98024.06
2023-08-26T00:33:32.676Z,98031.66
2023-08-26T00:35:59.359Z,98025.00
2023-08-26T00:38:25.980Z,98028.06
2023-08-26T00:40:52.606Z,98031.03
2023-08-26T00:43:19.208Z,98031.19
2023-08-26T00:45:47.593Z,98035.66
2023-08-26T00:48:15.637Z,98022.88
2023-08-26T00:50:44.835Z,98024.00
2023-08-26T00:53:13.456Z,98027.13
2023-08-26T00:55:44.369Z,98026.44
2023-08-26T00:58:11.790Z,98023.94
2023-08-26T01:00:40.932Z,98025.25
2023-08-26T01:03:08.354Z,98033.63
2023-08-26T01:05:35.235Z,98043.56
2023-08-26T01:08:03.937Z,98040.38
2023-08-26T01:11:00.059Z,98042.88
2023-08-26T01:13:36.036Z,98039.41
2023-08-26T01:16:04.135Z,98037.91
2023-08-26T01:18:31.582Z,98034.72
2023-08-26T01:20:58.805Z,98041.66
2023-08-26T01:23:39.662Z,98045.16
2023-08-26T01:26:06.908Z,98043.19
2023-08-26T01:28:33.521Z,98035.16
2023-08-26T01:31:08.956Z,98031.38
2023-08-26T01:33:43.841Z,98026.16
2023-08-26T01:36:14.475Z,98022.41
2023-08-26T01:38:41.635Z,98029.81
2023-08-26T01:41:10.731Z,98038.88
2023-08-26T01:43:37.740Z,98042.97
2023-08-26T01:46:04.392Z,98038.78
2023-08-26T01:48:30.999Z,98035.09
2023-08-26T01:50:57.688Z,98033.06
2023-08-26T01:53:24.339Z,98026.13
2023-08-26T01:55:51.006Z,98022.63
2023-08-26T01:58:17.745Z,98026.94
2023-08-26T02:00:44.305Z,98019.16
2023-08-26T02:03:10.997Z,98015.16
2023-08-26T02:05:37.780Z,98017.66
2023-08-26T02:08:04.703Z,98009.03
2023-08-26T02:10:31.393Z,98009.19
2023-08-26T02:12:58.143Z,98004.75
2023-08-26T02:15:24.859Z,98005.84
2023-08-26T02:17:51.499Z,97993.66
2023-08-26T02:20:18.210Z,97998.44
2023-08-26T02:22:44.810Z,97998.72
2023-08-26T02:25:11.611Z,98001.66
2023-08-26T02:27:38.387Z,98005.97
2023-08-26T02:30:05.737Z,97996.38
2023-08-26T02:32:32.388Z,97992.38
2023-08-26T02:34:59.121Z,97989.75
2023-08-26T02:37:25.716Z,97977.94
2023-08-26T02:39:52.483Z,97978.25
2023-08-26T02:42:19.214Z,97979.75
2023-08-26T02:44:45.925Z,97972.97
2023-08-26T02:47:12.535Z,97971.81
2023-08-26T02:49:39.138Z,97971.81
2023-08-26T02:52:05.725Z,97971.81
2023-08-26T02:54:32.591Z,97969.19
2023-08-26T02:57:01.859Z,97969.47
2023-08-26T02:59:30.431Z,97969.88
2023-08-26T03:02:05.613Z,97979.31
2023-08-26T03:04:32.260Z,97980.81
2023-08-26T03:06:59.628Z,97975.06
2023-08-26T03:09:29.285Z,97976.28
2023-08-26T03:11:56.951Z,97973.28
2023-08-26T03:14:23.616Z,97975.69
2023-08-26T03:16:50.345Z,97973.97
2023-08-26T03:19:17.021Z,97974.19
2023-08-26T03:21:43.992Z,97973.38
2023-08-26T03:24:19.100Z,97974.25
2023-08-26T03:26:45.753Z,97982.81
2023-08-26T03:29:12.483Z,97985.44
2023-08-26T03:31:39.617Z,97991.16
2023-08-26T03:34:06.356Z,97984.84
2023-08-26T03:36:33.037Z,97976.53
2023-08-26T03:38:59.785Z,97977.94
2023-08-26T03:41:26.415Z,97975.06
2023-08-26T03:43:53.597Z,97976.28
2023-08-26T03:46:20.273Z,97981.03
2023-08-26T03:48:46.937Z,97988.28
2023-08-26T03:51:13.601Z,97992.19
2023-08-26T03:53:40.290Z,97999.31
2023-08-26T03:56:08.114Z,97991.66
2023-08-26T03:58:34.814Z,97989.84
2023-08-26T04:01:02.953Z,97988.88
2023-08-26T04:03:29.909Z,97993.78
2023-08-26T04:06:04.487Z,97995.28
2023-08-26T04:08:32.098Z,97995.75
2023-08-26T04:11:00.300Z,97992.25
2023-08-26T04:13:28.619Z,97992.94
2023-08-26T04:15:58.593Z,97992.09
2023-08-26T04:18:26.141Z,97987.81
2023-08-26T04:20:54.130Z,97999.50
2023-08-26T04:23:21.188Z,98006.59
2023-08-26T04:25:47.901Z,98008.94
2023-08-26T04:28:15.692Z,98013.97
2023-08-26T04:30:42.427Z,98004.81
2023-08-26T04:33:09.362Z,98009.28
2023-08-26T04:35:36.158Z,98014.44
2023-08-26T04:38:03.048Z,98007.47
2023-08-26T04:40:29.831Z,97999.84
2023-08-26T04:42:59.417Z,98005.44
2023-08-26T04:45:26.152Z,98001.78
2023-08-26T04:47:53.044Z,98006.38
2023-08-26T04:50:19.843Z,98005.03
2023-08-26T04:52:46.477Z,98005.81
2023-08-26T04:55:13.113Z,98005.81
2023-08-26T04:57:39.742Z,97999.84
2023-08-26T05:00:11.294Z,98004.44
2023-08-26T05:02:41.181Z,98009.56
2023-08-26T05:05:08.199Z,98013.75
2023-08-26T05:07:34.854Z,98012.06
2023-08-26T05:10:02.454Z,98011.41
2023-08-26T05:12:29.195Z,98011.41
2023-08-26T05:14:55.818Z,98011.41
2023-08-26T05:17:22.810Z,98003.19
2023-08-26T05:19:49.600Z,98003.19
2023-08-26T05:22:16.258Z,98010.94
2023-08-26T05:24:42.988Z,98010.94
2023-08-26T05:27:09.591Z,98012.06
2023-08-26T05:29:36.174Z,98009.16
2023-08-26T05:32:02.853Z,98011.19
2023-08-26T05:34:29.506Z,98008.47
2023-08-26T05:36:56.110Z,98009.50
2023-08-26T05:39:22.951Z,98012.16
2023-08-26T05:41:49.700Z,98014.78
2023-08-26T05:44:16.360Z,98024.31
2023-08-26T05:46:43.015Z,98023.03
2023-08-26T05:49:09.735Z,98027.34
2023-08-26T05:51:36.401Z,98021.75
2023-08-26T05:54:03.249Z,98027.59
2023-08-26T05:56:29.876Z,98022.84
2023-08-26T05:58:56.532Z,98024.19
2023-08-26T06:01:23.306Z,98028.38
2023-08-26T06:03:49.965Z,98022.31
2023-08-26T06:06:16.613Z,98030.19
2023-08-26T06:08:43.321Z,98029.53
2023-08-26T06:11:09.969Z,98030.34
2023-08-26T06:13:36.681Z,98032.81
2023-08-26T06:16:03.733Z,98040.91
2023-08-26T06:18:30.368Z,98041.03
2023-08-26T06:20:57.005Z,98042.16
2023-08-26T06:23:23.653Z,98041.59
2023-08-26T06:25:54.299Z,98040.53
2023-08-26T06:28:21.608Z,98044.25
2023-08-26T06:30:48.439Z,98038.53
2023-08-26T06:33:15.165Z,98042.97
2023-08-26T06:35:41.926Z,98051.44
2023-08-26T06:38:11.797Z,98053.00
2023-08-26T06:40:38.442Z,98049.03
2023-08-26T06:43:05.208Z,98055.41
2023-08-26T06:45:32.493Z,98050.13
2023-08-26T06:47:59.614Z,98054.44
2023-08-26T06:50:26.779Z,98052.25
2023-08-26T06:52:53.518Z,98048.28
2023-08-26T06:55:20.145Z,98050.25
2023-08-26T06:57:46.797Z,98059.19
2023-08-26T07:00:14.707Z,98051.50
2023-08-26T07:02:42.044Z,98052.47
2023-08-26T07:05:09.300Z,98057.72
2023-08-26T07:07:37.644Z,98042.00
2023-08-26T07:10:06.181Z,98036.09
2023-08-26T07:12:33.100Z,98048.81
2023-08-26T07:14:59.772Z,98045.25
2023-08-26T07:17:26.401Z,98035.38
2023-08-26T07:19:53.057Z,98038.63
2023-08-26T07:22:27.159Z,98038.16
2023-08-26T07:24:56.558Z,98032.75
2023-08-26T07:27:24.616Z,98032.81
2023-08-26T07:29:51.347Z,98030.03
2023-08-26T07:32:18.043Z,98032.13
2023-08-26T07:34:44.681Z,98040.44
2023-08-26T07:37:11.495Z,98034.94
2023-08-26T07:39:38.217Z,98033.28
2023-08-26T07:42:05.379Z,98032.22
2023-08-26T07:44:32.088Z,98024.09
2023-08-26T07:46:58.757Z,98026.09
2023-08-26T07:49:25.377Z,98024.16
2023-08-26T07:51:52.319Z,98027.97
2023-08-26T07:54:19.001Z,98027.88
2023-08-26T07:56:45.681Z,98036.94
2023-08-26T07:59:12.296Z,98034.00
2023-08-26T08:01:39.620Z,98022.88
2023-08-26T08:04:06.690Z,98022.59
2023-08-26T08:06:33.407Z,98008.25
2023-08-26T08:09:00.069Z,98012.81
2023-08-26T08:11:26.728Z,98006.72
2023-08-26T08:13:53.365Z,98002.25
2023-08-26T08:16:20.012Z,98002.25
2023-08-26T08:18:46.716Z,98002.34
2023-08-26T08:21:13.460Z,98000.88
2023-08-26T08:23:42.279Z,97996.22
2023-08-26T08:26:09.291Z,98001.63
2023-08-26T08:28:35.966Z,97997.50
2023-08-26T08:31:02.810Z,97996.50
2023-08-26T08:33:29.488Z,97993.59
2023-08-26T08:35:56.149Z,97988.69
2023-08-26T08:38:23.160Z,97991.81
2023-08-26T08:40:49.784Z,97994.72
2023-08-26T08:43:19.429Z,97978.28
2023-08-26T08:45:46.597Z,97982.81
2023-08-26T08:48:14.002Z,97994.78
2023-08-26T08:50:40.940Z,97983.66
2023-08-26T08:53:09.442Z,97977.91
2023-08-26T08:55:36.148Z,97978.75
2023-08-26T08:58:03.888Z,97960.44
2023-08-26T09:00:31.396Z,97968.47
2023-08-26T09:03:00.836Z,97980.78
2023-08-26T09:05:28.413Z,97985.31
2023-08-26T09:07:57.332Z,97981.59
2023-08-26T09:10:26.846Z,97976.28
2023-08-26T09:12:53.525Z,97968.28
2023-08-26T09:15:20.235Z,97967.13
2023-08-26T09:17:49.329Z,97962.00
2023-08-26T09:20:16.159Z,97946.00
2023-08-26T09:22:43.357Z,97920.94
2023-08-26T09:25:10.114Z,97911.66
2023-08-26T09:27:46.246Z,97898.91
2023-08-26T09:30:20.063Z,97929.03
2023-08-26T09:32:49.537Z,97965.78
2023-08-26T09:35:20.416Z,97986.50
2023-08-26T09:38:04.396Z,97981.44
2023-08-26T09:40:31.467Z,97961.06
2023-08-26T09:42:58.234Z,97965.91
2023-08-26T09:45:25.420Z,97977.91
2023-08-26T09:47:52.871Z,98032.28
2023-08-26T09:50:32.029Z,98048.81
2023-08-26T09:52:59.222Z,98028.22
2023-08-26T09:55:26.234Z,98016.50
2023-08-26T09:57:54.463Z,98031.41
2023-08-26T10:00:22.014Z,98067.66
2023-08-26T10:02:50.840Z,98099.06
2023-08-26T10:05:22.834Z,98136.72
2023-08-26T10:07:52.185Z,98164.09
2023-08-26T10:10:18.785Z,98169.84
2023-08-26T10:12:48.756Z,98146.34
2023-08-26T10:15:18.482Z,98116.94
2023-08-26T10:17:47.031Z,98097.06
2023-08-26T10:20:13.933Z,98074.97
2023-08-26T10:22:41.298Z,98097.97
2023-08-26T10:25:10.177Z,98112.97
2023-08-26T10:27:38.276Z,98121.81
2023-08-26T10:30:07.253Z,98137.19
2023-08-26T10:32:44.305Z,98142.66
2023-08-26T10:35:13.332Z,98180.28
2023-08-26T10:37:41.357Z,98183.34
2023-08-26T10:40:16.094Z,98179.13
2023-08-26T10:43:08.927Z,98169.28
2023-08-26T10:45:57.959Z,98168.56
2023-08-26T10:48:25.733Z,98168.78
2023-08-26T10:51:00.844Z,98179.47
2023-08-26T10:53:28.426Z,98182.94
2023-08-26T10:56:14.189Z,98178.31
2023-08-26T10:58:47.943Z,98182.47
2023-08-26T11:01:15.871Z,98176.66
2023-08-26T11:03:45.254Z,98160.97
2023-08-26T11:06:14.244Z,98162.59
2023-08-26T11:08:53.587Z,98158.97
2023-08-26T11:11:20.450Z,98162.97
2023-08-26T11:13:47.906Z,98166.34
2023-08-26T11:16:18.279Z,98155.41
2023-08-26T11:18:45.331Z,98147.09
2023-08-26T11:21:13.821Z,98142.75
2023-08-26T11:23:40.939Z,98136.47
2023-08-26T11:26:10.700Z,98133.47
2023-08-26T11:28:37.405Z,98128.50
2023-08-26T11:31:04.233Z,98122.66
2023-08-26T11:33:34.260Z,98121.25
2023-08-26T11:36:09.215Z,98121.34
2023-08-26T11:38:37.464Z,98125.06
2023-08-26T11:41:08.227Z,98115.44
2023-08-26T11:43:38.463Z,98122.09
2023-08-26T11:46:06.884Z,98143.81
2023-08-26T11:48:37.729Z,98149.81
2023-08-26T11:51:05.207Z,98124.94
2023-08-26T11:53:32.404Z,98124.78
2023-08-26T11:55:59.480Z,98132.63
2023-08-26T11:58:29.269Z,98135.47
2023-08-26T12:00:57.062Z,98137.66
2023-08-26T12:03:24.549Z,98137.50
2023-08-26T12:05:54.089Z,98139.13
2023-08-26T12:08:22.912Z,98150.94
2023-08-26T12:10:51.180Z,98148.63
2023-08-26T12:13:18.272Z,98143.53
2023-08-26T12:15:45.516Z,98154.13
2023-08-26T12:18:13.106Z,98151.16
2023-08-26T12:20:43.563Z,98164.59
2023-08-26T12:23:10.315Z,98167.94
2023-08-26T12:25:43.055Z,98176.06
2023-08-26T12:28:25.758Z,98175.38
2023-08-26T12:30:53.261Z,98167.75
2023-08-26T12:33:25.683Z,98159.25
2023-08-26T12:35:54.220Z,98168.16
2023-08-26T12:38:21.366Z,98163.88
2023-08-26T12:40:51.543Z,98165.38
2023-08-26T12:43:21.962Z,98161.72
2023-08-26T12:45:50.661Z,98155.41
2023-08-26T12:48:31.057Z,98152.75
2023-08-26T12:51:07.264Z,98147.75
2023-08-26T12:53:33.974Z,98149.03
2023-08-26T12:56:00.827Z,98143.22
2023-08-26T12:58:28.025Z,98145.25
2023-08-26T13:00:55.032Z,98143.75
2023-08-26T13:03:21.987Z,98130.84
2023-08-26T13:05:50.192Z,98129.47
2023-08-26T13:08:16.891Z,98124.19
2023-08-26T13:10:43.606Z,98127.16
2023-08-26T13:13:10.363Z,98125.81
2023-08-26T13:15:39.440Z,98113.56
2023-08-26T13:18:06.404Z,98113.34
2023-08-26T13:20:33.491Z,98102.56
2023-08-26T13:23:01.838Z,98105.88
2023-08-26T13:25:28.555Z,98103.75
2023-08-26T13:27:55.679Z,98107.59
2023-08-26T13:30:22.589Z,98110.75
2023-08-26T13:32:52.111Z,98106.44
2023-08-26T13:35:18.819Z,98100.66
2023-08-26T13:37:45.614Z,98091.53
2023-08-26T13:40:12.379Z,98087.72
2023-08-26T13:42:39.060Z,98094.84
2023-08-26T13:45:06.269Z,98094.03
2023-08-26T13:47:32.979Z,98087.06
2023-08-26T13:49:59.651Z,98088.72
2023-08-26T13:52:26.372Z,98083.09
2023-08-26T13:54:52.988Z,98086.41
2023-08-26T13:57:19.726Z,98087.75
2023-08-26T13:59:46.362Z,98086.44
2023-08-26T14:02:13.291Z,98073.53
2023-08-26T14:04:40.029Z,98076.84
2023-08-26T14:07:06.618Z,98076.19
2023-08-26T14:09:33.290Z,98074.53
2023-08-26T14:12:01.008Z,98074.72
2023-08-26T14:14:28.090Z,98074.41
2023-08-26T14:16:54.773Z,98068.09
2023-08-26T14:19:21.498Z,98074.56
2023-08-26T14:21:48.175Z,98068.09
2023-08-26T14:24:14.818Z,98059.81
2023-08-26T14:26:41.654Z,98063.97
2023-08-26T14:29:08.264Z,98060.31
2023-08-26T14:31:34.930Z,98061.31
2023-08-26T14:34:01.613Z,98054.03
2023-08-26T14:36:28.255Z,98058.34
2023-08-26T14:38:55.971Z,98047.41
2023-08-26T14:41:22.607Z,98042.75
2023-08-26T14:43:50.948Z,98047.06
2023-08-26T14:46:17.776Z,98041.16
2023-08-26T14:48:44.942Z,98041.50
2023-08-26T14:51:11.538Z,98037.16
2023-08-26T14:53:38.268Z,98029.88
2023-08-26T14:56:05.145Z,98023.44
2023-08-26T14:58:31.830Z,98022.75
2023-08-26T15:00:58.585Z,98017.97
2023-08-26T15:03:25.551Z,98013.63
2023-08-26T15:06:01.937Z,98015.31
2023-08-26T15:08:29.114Z,98023.25
2023-08-26T15:10:55.869Z,98018.75
2023-08-26T15:13:23.740Z,98014.97
2023-08-26T15:15:51.376Z,98006.00
2023-08-26T15:18:19.385Z,97999.06
2023-08-26T15:20:47.654Z,97993.75
2023-08-26T15:23:15.334Z,97995.38
2023-08-26T15:25:44.391Z,97989.28
2023-08-26T15:28:11.479Z,97981.63
2023-08-26T15:30:38.626Z,97981.78
2023-08-26T15:33:05.549Z,97971.53
2023-08-26T15:35:32.389Z,97969.53
2023-08-26T15:37:59.489Z,97959.75
2023-08-26T15:40:26.323Z,97955.94
2023-08-26T15:42:56.331Z,97957.59
2023-08-26T15:45:23.002Z,97951.66
2023-08-26T15:47:51.390Z,97955.94
2023-08-26T15:50:18.496Z,97947.16
2023-08-26T15:52:45.138Z,97940.38
2023-08-26T15:55:11.873Z,97937.19
2023-08-26T15:57:38.565Z,97938.69
2023-08-26T16:00:05.654Z,97933.69
2023-08-26T16:02:32.379Z,97933.38
2023-08-26T16:04:59.100Z,97945.13
2023-08-26T16:07:25.753Z,97939.50
2023-08-26T16:09:52.371Z,97943.81
2023-08-26T16:12:19.008Z,97941.66
2023-08-26T16:14:45.653Z,97931.38
2023-08-26T16:17:12.426Z,97929.94
2023-08-26T16:19:39.138Z,97920.59
2023-08-26T16:22:05.718Z,97928.72
2023-08-26T16:24:32.309Z,97909.84
2023-08-26T16:26:58.968Z,97916.13
2023-08-26T16:29:25.817Z,97919.13
2023-08-26T16:31:52.457Z,97918.97
2023-08-26T16:34:19.724Z,97920.09
2023-08-26T16:36:46.354Z,97911.97
2023-08-26T16:39:14.186Z,97913.50
2023-08-26T16:41:41.017Z,97907.19
2023-08-26T16:44:07.620Z,97902.22
2023-08-26T16:46:34.279Z,97907.19
2023-08-26T16:49:01.134Z,97907.19
2023-08-26T16:51:27.843Z,97899.56
2023-08-26T16:53:54.484Z,97893.78
2023-08-26T16:56:21.251Z,97887.63
2023-08-26T16:58:47.842Z,97901.72
2023-08-26T17:01:14.481Z,97898.41
2023-08-26T17:03:41.120Z,97901.88
2023-08-26T17:06:09.288Z,97897.22
2023-08-26T17:08:36.530Z,97897.91
2023-08-26T17:11:04.324Z,97888.59
2023-08-26T17:13:31.065Z,97894.41
2023-08-26T17:15:58.821Z,97896.72
2023-08-26T17:18:25.544Z,97902.34
2023-08-26T17:20:52.296Z,97904.66
2023-08-26T17:23:18.926Z,97905.00
2023-08-26T17:25:45.564Z,97901.16
2023-08-26T17:28:12.312Z,97910.91
2023-08-26T17:30:38.972Z,97913.06
2023-08-26T17:33:06.397Z,97921.22
2023-08-26T17:35:35.994Z,97933.91
2023-08-26T17:38:04.213Z,97943.47
2023-08-26T17:40:31.244Z,97934.50
2023-08-26T17:42:58.219Z,97938.00
2023-08-26T17:45:25.199Z,97939.81
2023-08-26T17:47:51.995Z,97927.72
2023-08-26T17:50:18.668Z,97924.88
2023-08-26T17:52:45.293Z,97929.19
2023-08-26T17:55:13.657Z,97908.63
2023-08-26T17:57:40.423Z,97903.97
2023-08-26T18:00:07.857Z,97912.25
2023-08-26T18:02:34.550Z,97914.19
2023-08-26T18:05:01.217Z,97903.41
2023-08-26T18:07:27.875Z,97902.94
2023-08-26T18:09:54.543Z,97902.44
2023-08-26T18:12:21.184Z,97917.25
2023-08-26T18:14:47.963Z,97905.81
2023-08-26T18:17:14.774Z,97900.97
2023-08-26T18:19:41.382Z,97909.06
2023-08-26T18:22:08.038Z,97908.75
2023-08-26T18:24:34.731Z,97914.97
2023-08-26T18:27:01.414Z,97910.66
2023-08-26T18:29:37.789Z,97907.50
2023-08-26T18:32:05.019Z,97904.59
2023-08-26T18:34:31.636Z,97904.59
2023-08-26T18:36:58.406Z,97898.31
2023-08-26T18:39:25.042Z,97882.75
2023-08-26T18:41:51.688Z,97885.50
2023-08-26T18:44:18.536Z,97882.19
2023-08-26T18:46:46.255Z,97867.63
2023-08-26T18:49:12.886Z,97877.84
2023-08-26T18:51:39.650Z,97874.50
2023-08-26T18:54:06.412Z,97874.66
2023-08-26T18:56:34.406Z,97875.59
2023-08-26T18:59:01.073Z,97865.81
2023-08-26T19:01:27.752Z,97861.56
2023-08-26T19:03:54.442Z,97863.38
2023-08-26T19:06:21.207Z,97872.84
2023-08-26T19:08:47.962Z,97861.44
2023-08-26T19:11:14.620Z,97861.06
2023-08-26T19:13:41.739Z,97865.97
2023-08-26T19:16:08.435Z,97871.56
2023-08-26T19:18:35.073Z,97856.50
2023-08-26T19:21:01.769Z,97852.69
2023-08-26T19:23:28.421Z,97844.09
2023-08-26T19:25:55.132Z,97837.44
2023-08-26T19:28:21.821Z,97844.69
2023-08-26T19:30:49.155Z,97859.56
2023-08-26T19:33:16.562Z,97862.66
2023-08-26T19:35:43.684Z,97855.03
2023-08-26T19:38:10.926Z,97841.59
2023-08-26T19:40:37.637Z,97837.31
2023-08-26T19:43:04.513Z,97830.66
2023-08-26T19:45:31.205Z,97837.91
2023-08-26T19:47:58.909Z,97848.19
2023-08-26T19:50:25.923Z,97844.84
2023-08-26T19:52:52.774Z,97858.69
2023-08-26T19:55:19.509Z,97843.94
2023-08-26T19:57:46.218Z,97840.47
2023-08-26T20:00:14.471Z,97824.28
2023-08-26T20:02:41.486Z,97834.16
2023-08-26T20:05:08.430Z,97823.28
2023-08-26T20:07:35.421Z,97821.69
2023-08-26T20:10:02.781Z,97817.00
2023-08-26T20:12:31.414Z,97815.72
2023-08-26T20:15:02.788Z,97824.50
2023-08-26T20:17:33.242Z,97829.09
2023-08-26T20:20:00.096Z,97829.78
2023-08-26T20:22:27.295Z,97830.06
2023-08-26T20:24:53.946Z,97835.56
2023-08-26T20:27:21.106Z,97832.69
2023-08-26T20:29:47.740Z,97827.56
2023-08-26T20:32:14.664Z,97833.69
2023-08-26T20:34:41.334Z,97841.63
2023-08-26T20:37:08.040Z,97832.69
2023-08-26T20:39:34.692Z,97830.59
2023-08-26T20:42:04.094Z,97834.22
2023-08-26T20:44:31.078Z,97834.53
2023-08-26T20:46:57.617Z,97826.06
2023-08-26T20:49:24.120Z,97822.75
2023-08-26T20:51:51.308Z,97814.38
2023-08-26T20:54:17.934Z,97794.38
2023-08-26T20:56:44.534Z,97806.91
2023-08-26T20:59:11.065Z,97796.34
2023-08-26T21:01:37.643Z,97790.59
2023-08-26T21:04:04.397Z,97800.19
2023-08-26T21:06:30.977Z,97795.88
2023-08-26T21:08:57.437Z,97794.22
2023-08-26T21:11:25.938Z,97786.63
2023-08-26T21:13:52.626Z,97783.97
2023-08-26T21:16:19.281Z,97782.66
2023-08-26T21:18:45.900Z,97765.47
2023-08-26T21:21:13.911Z,97753.25
2023-08-26T21:23:40.571Z,97747.16
2023-08-26T21:26:07.249Z,97739.88
2023-08-26T21:28:33.883Z,97735.75
2023-08-26T21:31:00.638Z,97720.22
2023-08-26T21:33:27.326Z,97721.19
2023-08-26T21:35:54.078Z,97743.00
2023-08-26T21:38:20.732Z,97750.75
2023-08-26T21:40:47.377Z,97765.47
2023-08-26T21:43:14.307Z,97768.81
2023-08-26T21:45:41.067Z,97766.44
2023-08-26T21:48:08.245Z,97761.84
2023-08-26T21:50:42.174Z,97763.88
2023-08-26T21:53:09.176Z,97752.13
2023-08-26T21:55:36.177Z,97763.97
2023-08-26T21:58:04.741Z,97795.50
2023-08-26T22:00:32.971Z,97826.16
2023-08-26T22:03:00.060Z,97844.00
2023-08-26T22:05:38.215Z,97843.06
2023-08-26T22:08:05.579Z,97848.72
2023-08-26T22:10:37.856Z,97868.25
2023-08-26T22:13:06.812Z,97901.31
2023-08-26T22:15:39.364Z,97906.97
2023-08-26T22:18:07.128Z,97879.28
2023-08-26T22:20:38.292Z,97846.03
2023-08-26T22:23:05.630Z,97884.19
2023-08-26T22:25:32.488Z,97912.09
2023-08-26T22:27:59.238Z,97921.47
2023-08-26T22:30:26.040Z,97926.53
2023-08-26T22:32:52.777Z,97950.31
2023-08-26T22:35:19.910Z,97960.47
2023-08-26T22:37:47.039Z,97946.47
2023-08-26T22:40:15.738Z,97945.94
2023-08-26T22:42:42.592Z,97928.56
2023-08-26T22:45:09.660Z,97945.69
2023-08-26T22:47:36.445Z,97950.81
2023-08-26T22:50:04.827Z,97981.69
2023-08-26T22:52:34.952Z,97962.22
2023-08-26T22:55:01.704Z,97954.44
2023-08-26T22:57:28.316Z,97969.78
2023-08-26T22:59:55.002Z,97957.22
2023-08-26T23:02:21.977Z,97941.69
2023-08-26T23:04:49.205Z,97957.97
2023-08-26T23:07:16.216Z,97978.72
2023-08-26T23:09:43.284Z,97979.81
2023-08-26T23:12:10.356Z,97972.75
2023-08-26T23:14:40.039Z,97964.28
2023-08-26T23:17:06.789Z,97971.09
2023-08-26T23:19:33.615Z,97977.34
2023-08-26T23:22:01.137Z,97979.16
2023-08-26T23:24:27.775Z,97983.91
2023-08-26T23:26:55.052Z,97990.41
2023-08-26T23:29:21.704Z,97988.06
2023-08-26T23:31:48.418Z,97982.09
2023-08-26T23:34:19.021Z,97981.41
2023-08-26T23:36:47.318Z,97960.44
2023-08-26T23:39:14.177Z,97957.78
2023-08-26T23:41:40.928Z,97964.91
2023-08-26T23:44:08.032Z,97947.38
2023-08-26T23:46:35.230Z,97934.19
2023-08-26T23:49:01.878Z,97948.38
2023-08-26T23:51:28.562Z,97976.28
2023-08-26T23:53:55.170Z,97956.00
2023-08-26T23:56:21.790Z,97920.44
2023-08-26T23:58:48.388Z,97938.41
